CheckWX is a tool to help pilots better visualize weather data.  It is not intended as a substitute for an official pre-flight weather briefing.

10:45:47 UTC

SBPA METAR
Salgado Filho Airport
Porto Alegre, Brazil
Current

46 mins ago

SBPA 181000Z 31003KT 280V340 0200 R11/0350 R29/0350 FG VV001 16/16 Q1014
Observed
Apr-18 @ 10:00 UTC
Wind
  • 310° at 3 KTS
Visibility
193 meters
Flight Rules
LIFR
Conditions
Fog
Cloud Levels
  • Vertical visibility at 100' AGL
Temperature
16°C / 61°F
Dewpoint
16°C / 61°F
Humidity
100%
Altimeter
29.94" Hg
Pressure
1013.92 hPa
Previous

1 hour ago

SBPA 180940Z 32002KT 0200 R11/0350 R29/0350 FG VV001 17/16 Q101 4
Observed
Apr-18 @ 09:40 UTC
Wind
  • 320° at 2 KTS
Visibility
193 meters
Flight Rules
LIFR
Conditions
Fog
Cloud Levels
  • Vertical visibility at 100' AGL
Temperature
17°C / 63°F
Dewpoint
16°C / 61°F
Humidity
94%
Previous

2 hours ago

SBPA 180900Z VRB02KT 0200 R11/0300 R29/0300 FG VV001 17/16 Q1014
Observed
Apr-18 @ 09:00 UTC
Wind
  • Variable at 2 KTS
Visibility
193 meters
Flight Rules
LIFR
Conditions
Fog
Cloud Levels
  • Vertical visibility at 100' AGL
Temperature
17°C / 63°F
Dewpoint
16°C / 61°F
Humidity
94%
Altimeter
29.94" Hg
Pressure
1013.92 hPa